createdAt,value
2018-10-06T00:04:13.832Z,8.50
2018-10-06T00:09:17.458Z,8.80
2018-10-06T00:14:21.054Z,8.60
2018-10-06T00:19:25.650Z,8.40
2018-10-06T00:24:30.370Z,8.40
2018-10-06T00:29:34.064Z,8.40
2018-10-06T00:34:37.697Z,8.50
2018-10-06T00:39:42.449Z,8.20
2018-10-06T00:44:46.168Z,8.10
2018-10-06T00:49:49.939Z,7.90
2018-10-06T00:54:53.589Z,7.90
2018-10-06T00:59:58.878Z,8.00
2018-10-06T01:05:02.773Z,7.90
2018-10-06T01:10:07.079Z,8.00
2018-10-06T01:15:10.746Z,7.90
2018-10-06T01:20:14.293Z,7.80
2018-10-06T01:25:17.864Z,7.80
2018-10-06T01:30:23.598Z,8.10
2018-10-06T01:35:27.232Z,8.00
2018-10-06T01:40:31.968Z,7.70
2018-10-06T01:45:36.571Z,7.70
2018-10-06T01:50:40.138Z,7.80
2018-10-06T01:55:44.782Z,7.80
2018-10-06T02:00:48.895Z,7.70
2018-10-06T02:05:52.685Z,7.70
2018-10-06T02:10:56.306Z,7.60
2018-10-06T02:15:59.874Z,7.70
2018-10-06T02:21:03.531Z,7.70
2018-10-06T02:26:07.674Z,7.50
2018-10-06T02:31:11.287Z,7.60
2018-10-06T02:36:14.830Z,7.70
2018-10-06T02:41:18.424Z,7.80
2018-10-06T02:46:22.637Z,7.70
2018-10-06T02:51:26.162Z,7.70
2018-10-06T02:56:30.840Z,7.60
2018-10-06T03:01:34.928Z,7.50
2018-10-06T03:06:38.603Z,7.80
2018-10-06T03:11:42.147Z,7.60
2018-10-06T03:16:45.806Z,7.70
2018-10-06T03:21:49.342Z,7.50
2018-10-06T03:26:53.054Z,7.60
2018-10-06T03:31:56.598Z,7.60
2018-10-06T03:37:00.134Z,7.40
2018-10-06T03:42:03.747Z,7.30
2018-10-06T03:47:07.359Z,7.40
2018-10-06T03:52:10.874Z,7.50
2018-10-06T03:57:14.646Z,7.20
2018-10-06T04:02:18.254Z,7.10
2018-10-06T04:07:22.939Z,7.20
2018-10-06T04:12:26.487Z,7.30
2018-10-06T04:17:30.378Z,7.60
2018-10-06T04:22:33.930Z,7.20
2018-10-06T04:27:38.448Z,7.00
2018-10-06T04:32:53.935Z,7.00
2018-10-06T04:37:57.629Z,7.10
2018-10-06T04:43:01.190Z,6.90
2018-10-06T04:48:04.754Z,6.90
2018-10-06T04:53:08.767Z,7.10
2018-10-06T04:58:12.327Z,7.00
2018-10-06T05:03:16.982Z,6.80
2018-10-06T05:08:20.654Z,6.80
2018-10-06T05:13:24.222Z,6.90
2018-10-06T05:18:27.883Z,6.70
2018-10-06T05:23:31.611Z,6.80
2018-10-06T05:28:35.139Z,6.80
2018-10-06T05:33:38.830Z,6.80
2018-10-06T05:38:42.430Z,6.90
2018-10-06T05:43:48.042Z,7.00
2018-10-06T05:48:51.599Z,6.90
2018-10-06T05:53:55.810Z,6.70
2018-10-06T05:58:59.518Z,6.80
2018-10-06T06:04:03.050Z,7.00
2018-10-06T06:09:07.187Z,7.00
2018-10-06T06:14:10.847Z,7.00
2018-10-06T06:19:14.459Z,7.00
2018-10-06T06:24:18.042Z,7.00
2018-10-06T06:29:22.726Z,7.10
2018-10-06T06:34:26.423Z,7.30
2018-10-06T06:39:30.062Z,7.60
2018-10-06T06:44:35.988Z,7.80
2018-10-06T06:49:39.466Z,8.00
2018-10-06T06:54:43.058Z,8.40
2018-10-06T06:59:47.871Z,8.80
2018-10-06T07:04:51.548Z,9.10
2018-10-06T07:09:55.266Z,9.40
2018-10-06T07:14:58.825Z,9.60
2018-10-06T07:20:02.421Z,10.10
2018-10-06T07:25:06.201Z,10.20
2018-10-06T07:30:10.774Z,10.80
2018-10-06T07:35:14.362Z,10.90
2018-10-06T07:40:17.952Z,11.20
2018-10-06T07:45:21.516Z,11.00
2018-10-06T07:50:25.164Z,11.20
2018-10-06T07:55:28.842Z,11.40
2018-10-06T08:00:32.415Z,12.00
2018-10-06T08:05:38.002Z,12.10
2018-10-06T08:10:41.742Z,12.60
2018-10-06T08:15:45.334Z,15.60
2018-10-06T08:20:51.134Z,17.10
2018-10-06T08:25:54.704Z,18.60
2018-10-06T08:30:58.254Z,19.30
2018-10-06T08:36:01.931Z,19.20
2018-10-06T08:41:05.488Z,19.30
2018-10-06T08:46:09.161Z,19.70
2018-10-06T08:51:12.808Z,19.70
2018-10-06T08:56:16.520Z,19.30
2018-10-06T09:01:21.041Z,18.80
2018-10-06T09:06:24.586Z,19.20
2018-10-06T09:11:28.206Z,19.00
2018-10-06T09:16:31.775Z,19.70
2018-10-06T09:21:35.347Z,20.20
2018-10-06T09:26:38.889Z,20.00
2018-10-06T09:31:42.443Z,21.10
2018-10-06T09:36:47.053Z,21.10
2018-10-06T09:41:50.649Z,21.80
2018-10-06T09:46:54.206Z,20.80
2018-10-06T09:51:58.813Z,21.40
2018-10-06T09:57:02.475Z,21.90
2018-10-06T10:02:14.574Z,22.10
2018-10-06T10:07:18.136Z,22.00
2018-10-06T10:12:21.922Z,22.00
2018-10-06T10:17:25.477Z,21.80
2018-10-06T10:22:29.170Z,22.70
2018-10-06T10:27:32.706Z,23.30
2018-10-06T10:32:36.366Z,23.20
2018-10-06T10:37:39.946Z,21.80
2018-10-06T10:42:43.629Z,21.60
2018-10-06T10:47:47.506Z,21.50
2018-10-06T10:52:51.123Z,20.70
2018-10-06T10:57:55.842Z,20.80
2018-10-06T11:02:59.960Z,21.00
2018-10-06T11:08:03.549Z,20.70
2018-10-06T11:13:07.698Z,20.60
2018-10-06T11:18:11.336Z,20.40
2018-10-06T11:23:16.073Z,20.70
2018-10-06T11:28:22.418Z,20.50
2018-10-06T11:33:26.313Z,20.60
2018-10-06T11:38:31.256Z,20.60
2018-10-06T11:43:35.502Z,20.70
2018-10-06T11:48:39.113Z,20.50
2018-10-06T11:53:42.987Z,20.50
2018-10-06T11:58:47.743Z,20.30
2018-10-06T12:03:51.319Z,20.40
2018-10-06T12:08:55.006Z,20.30
2018-10-06T12:13:58.617Z,20.60
2018-10-06T12:19:02.918Z,20.60
2018-10-06T12:24:06.547Z,20.80
2018-10-06T12:29:10.263Z,20.80
2018-10-06T12:34:15.960Z,20.80
2018-10-06T12:39:25.194Z,20.80
2018-10-06T12:44:28.764Z,20.80
2018-10-06T12:49:32.550Z,20.80
2018-10-06T12:54:36.202Z,20.60
2018-10-06T12:59:40.122Z,20.50
2018-10-06T13:04:43.742Z,20.50
2018-10-06T13:09:47.346Z,20.80
2018-10-06T13:14:51.055Z,21.00
2018-10-06T13:19:54.638Z,20.40
2018-10-06T13:24:58.189Z,20.30
2018-10-06T13:30:01.808Z,20.70
2018-10-06T13:35:05.511Z,20.60
2018-10-06T13:40:09.239Z,20.80
2018-10-06T13:45:12.888Z,20.90
2018-10-06T13:50:16.458Z,21.10
2018-10-06T13:55:21.121Z,21.40
2018-10-06T14:00:24.687Z,21.30
2018-10-06T14:05:28.299Z,21.20
2018-10-06T14:10:31.859Z,21.20
2018-10-06T14:15:35.450Z,21.30
2018-10-06T14:20:39.289Z,21.30
2018-10-06T14:25:44.894Z,21.30
2018-10-06T14:30:48.602Z,21.20
2018-10-06T14:35:52.245Z,21.30
2018-10-06T14:40:57.414Z,21.20
2018-10-06T14:46:09.419Z,21.10
2018-10-06T14:51:13.002Z,21.00
2018-10-06T14:56:19.022Z,21.00
2018-10-06T15:01:22.630Z,21.00
2018-10-06T15:06:27.183Z,21.10
2018-10-06T15:11:30.799Z,21.00
2018-10-06T15:16:35.621Z,20.80
2018-10-06T15:21:41.591Z,20.80
2018-10-06T15:26:45.115Z,20.70
2018-10-06T15:31:51.891Z,20.50
2018-10-06T15:36:55.487Z,20.50
2018-10-06T15:42:00.076Z,20.40
2018-10-06T15:47:03.642Z,20.20
2018-10-06T15:52:08.350Z,20.10
2018-10-06T15:57:11.988Z,20.00
2018-10-06T16:02:15.734Z,19.90
2018-10-06T16:07:19.486Z,19.70
2018-10-06T16:12:23.242Z,19.70
2018-10-06T16:17:27.186Z,19.50
2018-10-06T16:22:31.044Z,19.30
2018-10-06T16:27:34.852Z,19.20
2018-10-06T16:32:38.449Z,19.00
2018-10-06T16:37:42.043Z,18.70
2018-10-06T16:42:45.571Z,18.60
2018-10-06T16:47:49.091Z,18.50
2018-10-06T16:52:53.716Z,18.30
2018-10-06T16:57:57.270Z,18.00
2018-10-06T17:03:00.800Z,17.70
2018-10-06T17:08:04.350Z,17.40
2018-10-06T17:13:08.054Z,17.30
2018-10-06T17:18:11.734Z,17.10
2018-10-06T17:23:15.439Z,17.00
2018-10-06T17:28:19.006Z,16.90
2018-10-06T17:33:22.590Z,16.90
2018-10-06T17:38:29.445Z,16.80
2018-10-06T17:43:33.222Z,16.70
2018-10-06T17:48:36.872Z,16.70
2018-10-06T17:53:40.478Z,16.70
2018-10-06T17:58:44.083Z,16.70
2018-10-06T18:03:51.366Z,16.50
2018-10-06T18:08:56.931Z,16.30
2018-10-06T18:14:01.557Z,16.10
2018-10-06T18:19:05.303Z,16.00
2018-10-06T18:24:10.073Z,16.10
2018-10-06T18:29:18.306Z,15.90
2018-10-06T18:34:21.934Z,16.00
2018-10-06T18:39:25.580Z,15.90
2018-10-06T18:44:31.173Z,15.90
2018-10-06T18:49:34.802Z,15.90
2018-10-06T18:54:39.669Z,15.80
2018-10-06T18:59:43.211Z,15.70
2018-10-06T19:04:46.954Z,15.60
2018-10-06T19:09:50.529Z,15.60
2018-10-06T19:14:54.151Z,15.90
2018-10-06T19:19:57.805Z,15.60
2018-10-06T19:25:01.509Z,15.40
2018-10-06T19:30:05.272Z,15.30
2018-10-06T19:35:08.837Z,14.90
2018-10-06T19:40:12.510Z,14.80
2018-10-06T19:45:16.050Z,14.60
2018-10-06T19:50:24.082Z,14.60
2018-10-06T19:55:27.706Z,14.70
2018-10-06T20:00:31.347Z,14.40
2018-10-06T20:05:36.104Z,14.20
2018-10-06T20:10:40.776Z,14.10
2018-10-06T20:15:44.455Z,14.00
2018-10-06T20:20:48.552Z,13.90
2018-10-06T20:25:52.107Z,13.80
2018-10-06T20:30:55.752Z,13.80
2018-10-06T20:36:00.013Z,13.70
2018-10-06T20:41:03.685Z,13.70
2018-10-06T20:46:07.677Z,13.60
2018-10-06T20:51:11.254Z,13.40
2018-10-06T20:56:14.880Z,13.30
2018-10-06T21:01:20.512Z,13.30
2018-10-06T21:06:24.078Z,13.30
2018-10-06T21:11:30.962Z,13.20
2018-10-06T21:16:34.634Z,13.30
2018-10-06T21:21:38.318Z,13.20
2018-10-06T21:26:43.946Z,13.10
2018-10-06T21:31:47.550Z,13.00
2018-10-06T21:36:51.137Z,12.90
2018-10-06T21:41:54.739Z,13.10
2018-10-06T21:46:59.911Z,13.00
2018-10-06T21:52:03.579Z,12.80
2018-10-06T21:57:08.205Z,12.80
2018-10-06T22:02:12.843Z,12.50
2018-10-06T22:07:18.499Z,12.60
2018-10-06T22:12:23.462Z,12.50
2018-10-06T22:17:28.190Z,12.40
2018-10-06T22:22:31.918Z,12.40
2018-10-06T22:27:35.792Z,12.30
2018-10-06T22:32:40.499Z,12.30
2018-10-06T22:37:47.375Z,12.20
2018-10-06T22:42:52.434Z,12.10
2018-10-06T22:47:55.993Z,12.10
2018-10-06T22:53:00.498Z,12.10
2018-10-06T22:58:04.076Z,11.90
2018-10-06T23:03:08.928Z,11.80
2018-10-06T23:08:12.580Z,11.80
2018-10-06T23:13:17.324Z,11.70
2018-10-06T23:33:33.252Z,11.40
2018-10-06T23:38:37.089Z,11.70
2018-10-06T23:43:43.004Z,11.40
2018-10-06T23:48:47.787Z,11.30
2018-10-06T23:53:53.314Z,11.30
2018-10-06T23:58:57.542Z,11.00
